Time;durP1;ratioP1;P1;durP2;ratioP2;P2;SDS_P1;SDS_P2;PMS_P1;PMS_P2;Temp;Humidity;BMP_temperature;BMP_pressure;BME280_temperature;BME280_humidity;BME280_pressure;Samples;Min_cycle;Max_cycle;Signal;HPM_P1;HPM_P2
2023/03/30 00:00:29;;;;;;;;;;;;;;;6.06;64.86;100092.72;134303;1298;22870;-76
2023/03/30 00:03:37;;;;;;;;;;;;;;;6.05;65.00;100091.21;134268;1301;23312;-75
2023/03/30 00:06:38;;;;;;;;;;;;;;;6.04;65.29;100087.80;134248;1302;22462;-75
2023/03/30 00:09:42;;;;;;;;;;;;;;;6.03;65.48;100084.42;134272;1299;23308;-76
2023/03/30 00:12:44;;;;;;;;;;;;;;;6.01;65.51;100086.14;134278;1297;22455;-76
2023/03/30 00:15:44;;;;;;;;;;;;;;;6.00;65.67;100081.45;134257;1298;23233;-75
2023/03/30 00:18:46;;;;;;;;;;;;;;;6.00;65.58;100082.67;134237;1301;23410;-76
2023/03/30 00:21:47;;;;;;;;;;;;;;;6.02;65.76;100079.23;134265;1297;22469;-75
2023/03/30 00:24:47;;;;;;;;;;;;;;;6.03;65.60;100071.61;134290;1298;22510;-75
2023/03/30 00:27:47;;;;;;;;;;;;;;;6.04;65.76;100069.33;134256;1298;23238;-76
2023/03/30 00:30:51;;;;;;;;;;;;;;;6.05;66.00;100067.36;134296;1297;22464;-76
2023/03/30 00:33:52;;;;;;;;;;;;;;;6.07;65.76;100062.63;134281;1297;23210;-76
2023/03/30 00:36:53;;;;;;;;;;;;;;;6.09;65.78;100070.88;134155;1297;22433;-76
2023/03/30 00:39:54;;;;;;;;;;;;;;;6.10;66.13;100063.40;134297;1297;22543;-75
2023/03/30 00:42:59;;;;;;;;;;;;;;;6.10;66.17;100057.80;134227;1295;22435;-75
2023/03/30 00:46:00;;;;;;;;;;;;;;;6.08;66.22;100059.67;134263;1297;22575;-74
2023/03/30 00:49:09;;;;;;;;;;;;;;;6.08;66.28;100059.16;134291;1304;22522;-76
2023/03/30 00:52:10;;;;;;;;;;;;;;;6.09;66.30;100060.82;134301;1298;22429;-74
2023/03/30 00:55:11;;;;;;;;;;;;;;;6.11;66.22;100059.83;134296;1296;22449;-75
2023/03/30 00:58:14;;;;;;;;;;;;;;;6.11;66.62;100054.15;134304;1296;23264;-75
2023/03/30 01:01:24;;;;;;;;;;;;;;;6.12;66.44;100050.23;134302;1296;22502;-74
2023/03/30 01:04:28;;;;;;;;;;;;;;;6.11;66.50;100047.83;134178;1304;22454;-76
2023/03/30 01:07:31;;;;;;;;;;;;;;;6.12;66.62;100046.74;134293;1301;22497;-74
2023/03/30 01:10:33;;;;;;;;;;;;;;;6.11;66.75;100042.20;134300;1297;22481;-76
2023/03/30 01:13:36;;;;;;;;;;;;;;;6.11;66.94;100036.98;134262;1297;22493;-75
2023/03/30 01:17:17;;;;;;;;;;;;;;;6.11;67.41;100034.20;134266;1298;23871;-77
2023/03/30 01:20:32;;;;;;;;;;;;;;;6.09;67.23;100029.08;133347;1304;22443;-77
2023/03/30 01:23:42;;;;;;;;;;;;;;;6.07;67.51;100026.77;133406;1303;22502;-77
2023/03/30 01:26:52;;;;;;;;;;;;;;;6.06;67.81;100019.30;134269;1295;22453;-77
2023/03/30 01:30:11;;;;;;;;;;;;;;;6.06;67.74;100015.47;134305;1298;23229;-77
2023/03/30 01:33:33;;;;;;;;;;;;;;;6.04;68.12;100002.85;134281;1298;22494;-77
2023/03/30 01:36:49;;;;;;;;;;;;;;;6.00;68.34;99996.36;134078;1299;23214;-77
2023/03/30 01:39:49;;;;;;;;;;;;;;;5.97;68.34;99999.55;134288;1297;23482;-77
2023/03/30 01:42:56;;;;;;;;;;;;;;;5.97;68.53;99993.48;134275;1297;24456;-76
2023/03/30 01:46:02;;;;;;;;;;;;;;;5.94;68.69;99988.25;134155;1297;22477;-77
2023/03/30 01:49:09;;;;;;;;;;;;;;;5.94;69.07;99984.06;134167;1296;22473;-77
2023/03/30 01:52:10;;;;;;;;;;;;;;;5.93;68.71;99982.19;134300;1296;22428;-77
2023/03/30 01:55:15;;;;;;;;;;;;;;;5.94;68.49;99982.67;134057;1300;22478;-77
2023/03/30 01:58:28;;;;;;;;;;;;;;;5.95;68.79;99986.80;134092;1294;22445;-77
2023/03/30 02:01:32;;;;;;;;;;;;;;;5.97;68.89;99985.40;134079;1298;23139;-77
2023/03/30 02:04:35;;;;;;;;;;;;;;;5.97;69.17;99980.48;134267;1297;22568;-77
2023/03/30 02:07:38;;;;;;;;;;;;;;;5.97;68.93;99978.68;134169;1298;22436;-76
2023/03/30 02:10:43;;;;;;;;;;;;;;;5.97;69.12;99972.73;134285;1296;22584;-78
2023/03/30 02:13:47;;;;;;;;;;;;;;;5.98;69.31;99966.88;134288;1298;22385;-77
2023/03/30 02:16:54;;;;;;;;;;;;;;;5.98;68.96;99962.60;134075;1300;22439;-77
2023/03/30 02:19:56;;;;;;;;;;;;;;;5.99;69.23;99957.96;134283;1296;22432;-78
2023/03/30 02:23:00;;;;;;;;;;;;;;;6.00;69.09;99953.52;134301;1297;23160;-78
2023/03/30 02:26:01;;;;;;;;;;;;;;;6.01;69.14;99950.39;134283;1297;22570;-77
2023/03/30 02:29:02;;;;;;;;;;;;;;;6.02;69.31;99944.70;134279;1296;23179;-77
2023/03/30 02:32:04;;;;;;;;;;;;;;;6.02;69.10;99951.02;134200;1296;169605;-77
2023/03/30 02:35:24;;;;;;;;;;;;;;;6.02;69.25;99950.11;134114;1297;22478;-75
2023/03/30 02:38:48;;;;;;;;;;;;;;;6.03;69.23;99946.73;134087;1296;22443;-77
2023/03/30 02:41:56;;;;;;;;;;;;;;;6.04;69.20;99943.66;134001;1298;23284;-77
2023/03/30 02:45:39;;;;;;;;;;;;;;;;;;;;;
2023/03/30 02:48:49;;;;;;;;;;;;;;;6.06;69.47;99932.75;134108;1298;23147;-77
2023/03/30 02:52:02;;;;;;;;;;;;;;;6.06;69.70;99927.83;134306;1298;22469;-76
2023/03/30 02:55:17;;;;;;;;;;;;;;;6.07;69.66;99921.08;134128;1297;23296;-77
2023/03/30 02:58:30;;;;;;;;;;;;;;;6.08;70.10;99916.10;134273;1298;22441;-77
2023/03/30 03:02:03;;;;;;;;;;;;;;;6.08;70.21;99915.71;134085;1298;22499;-76
2023/03/30 03:05:03;;;;;;;;;;;;;;;6.09;69.96;99917.61;134043;1296;22467;-75
2023/03/30 03:08:24;;;;;;;;;;;;;;;6.09;70.28;99917.36;134155;1297;22423;-77
2023/03/30 03:11:25;;;;;;;;;;;;;;;6.10;70.11;99909.95;134121;1297;23097;-76
2023/03/30 03:14:28;;;;;;;;;;;;;;;6.08;70.13;99899.71;134325;1298;23729;-77
2023/03/30 03:17:33;;;;;;;;;;;;;;;6.07;70.28;99891.88;134104;1298;22487;-76
2023/03/30 03:20:48;;;;;;;;;;;;;;;;;;;;;
2023/03/30 03:23:49;;;;;;;;;;;;;;;6.08;70.16;99893.78;134051;1300;23260;-76
2023/03/30 03:26:52;;;;;;;;;;;;;;;6.08;70.11;99889.73;134085;1298;22440;-76
2023/03/30 03:29:53;;;;;;;;;;;;;;;6.08;70.11;99894.27;134106;1298;22448;-77
2023/03/30 03:32:53;;;;;;;;;;;;;;;6.07;70.17;99892.59;134083;1299;22524;-77
2023/03/30 03:35:54;;;;;;;;;;;;;;;6.06;70.32;99887.81;134109;1296;22443;-77
2023/03/30 03:38:55;;;;;;;;;;;;;;;6.05;70.49;99882.77;134087;1297;22428;-78
2023/03/30 03:41:56;;;;;;;;;;;;;;;6.05;70.18;99878.60;133953;1303;22434;-75
2023/03/30 03:44:57;;;;;;;;;;;;;;;6.03;70.47;99876.61;134031;1297;22473;-77
2023/03/30 03:47:57;;;;;;;;;;;;;;;6.02;70.73;99870.23;134057;1298;22433;-78
2023/03/30 03:51:10;;;;;;;;;;;;;;;6.01;70.76;99865.77;134005;1298;23160;-77
2023/03/30 03:54:10;;;;;;;;;;;;;;;5.99;71.14;99865.81;134095;1297;22529;-78
2023/03/30 03:57:12;;;;;;;;;;;;;;;5.97;70.90;99851.42;134049;1298;22448;-77
2023/03/30 04:00:16;;;;;;;;;;;;;;;5.94;71.09;99844.70;134066;1297;22456;-78
2023/03/30 04:03:20;;;;;;;;;;;;;;;5.91;71.22;99832.98;134039;1299;22520;-78
2023/03/30 04:06:20;;;;;;;;;;;;;;;5.90;71.43;99826.96;134025;1297;22417;-76
2023/03/30 04:09:22;;;;;;;;;;;;;;;5.88;71.65;99823.59;134059;1297;22491;-76
2023/03/30 04:12:35;;;;;;;;;;;;;;;5.86;71.80;99821.52;134087;1297;22435;-77
2023/03/30 04:16:05;;;;;;;;;;;;;;;5.86;71.66;99815.34;134088;1297;22445;-76
2023/03/30 04:19:26;;;;;;;;;;;;;;;5.87;72.07;99808.45;133655;1297;22471;-77
2023/03/30 04:22:45;;;;;;;;;;;;;;;5.89;72.24;99803.23;134096;1297;22690;-77
2023/03/30 04:26:04;;;;;;;;;;;;;;;5.89;72.24;99802.66;134115;1297;22436;-77
2023/03/30 04:29:23;;;;;;;;;;;;;;;5.91;72.34;99817.90;134116;1298;22627;-76
2023/03/30 04:33:02;;;;;;;;;;;;;;;5.92;72.03;99833.59;133744;1297;22481;-78
2023/03/30 04:36:27;;;;;;;;;;;;;;;5.94;71.89;99839.42;134138;1297;22470;-75
2023/03/30 04:39:37;;;;;;;;;;;;;;;5.94;71.98;99842.88;134023;1297;22538;-77
2023/03/30 04:43:02;;;;;;;;;;;;;;;5.94;72.27;99836.96;134078;1297;23162;-74
2023/03/30 04:46:21;;;;;;;;;;;;;;;5.93;72.50;99829.66;134115;1297;22461;-75
2023/03/30 04:49:22;;;;;;;;;;;;;;;5.91;73.26;99826.71;134158;1287;23165;-82
2023/03/30 04:52:48;;;;;;;;;;;;;;;5.87;73.17;99816.34;133707;1297;22603;-79
2023/03/30 04:55:53;;;;;;;;;;;;;;;5.83;73.74;99810.89;134072;1297;22467;-78
2023/03/30 04:59:21;;;;;;;;;;;;;;;5.77;74.42;99810.41;134021;1300;22456;-78
2023/03/30 05:02:58;;;;;;;;;;;;;;;5.74;74.22;99811.38;133930;1297;22451;-81
2023/03/30 05:06:28;;;;;;;;;;;;;;;5.72;74.58;99812.48;133843;1298;22483;-77
2023/03/30 05:09:48;;;;;;;;;;;;;;;5.69;74.82;99810.67;134108;1297;23251;-77
2023/03/30 05:13:01;;;;;;;;;;;;;;;5.65;75.48;99812.38;134166;1297;23523;-80
2023/03/30 05:16:12;;;;;;;;;;;;;;;5.58;76.57;99799.85;133992;1296;22487;-79
2023/03/30 05:19:36;;;;;;;;;;;;;;;5.54;76.36;99800.64;134120;1302;23233;-79
2023/03/30 05:23:12;;;;;;;;;;;;;;;5.50;76.85;99796.04;133171;1303;23197;-80
2023/03/30 05:26:31;;;;;;;;;;;;;;;5.46;77.09;99796.77;134121;1297;22429;-80
2023/03/30 05:30:02;;;;;;;;;;;;;;;5.46;77.12;99795.77;134064;1297;23183;-79
2023/03/30 05:33:38;;;;;;;;;;;;;;;5.46;77.63;99801.40;133161;1305;22565;-80
2023/03/30 05:37:17;;;;;;;;;;;;;;;5.47;77.67;99784.95;133931;1297;22459;-80
2023/03/30 05:40:35;;;;;;;;;;;;;;;5.47;77.91;99776.89;133913;1297;22434;-81
2023/03/30 05:43:47;;;;;;;;;;;;;;;5.48;78.36;99773.30;134116;1291;22509;-80
2023/03/30 05:47:17;;;;;;;;;;;;;;;5.48;79.03;99779.98;133591;1301;22550;-80
2023/03/30 05:50:38;;;;;;;;;;;;;;;5.49;78.83;99780.72;134211;1297;22516;-81
2023/03/30 05:53:54;;;;;;;;;;;;;;;5.51;79.26;99769.63;134118;1291;22459;-80
2023/03/30 05:57:22;;;;;;;;;;;;;;;5.56;79.03;99776.59;134002;1296;22430;-80
2023/03/30 06:00:43;;;;;;;;;;;;;;;5.60;79.01;99783.71;133934;1296;22446;-80
2023/03/30 06:03:52;;;;;;;;;;;;;;;5.65;79.37;99780.30;134073;1297;22598;-80
2023/03/30 06:06:52;;;;;;;;;;;;;;;5.69;79.14;99774.33;134096;1297;22445;-79
2023/03/30 06:10:04;;;;;;;;;;;;;;;;;;;;;
2023/03/30 06:13:10;;;;;;;;;;;;;;;5.89;79.49;99778.27;134101;1296;24959;-80
2023/03/30 06:16:28;;;;;;;;;;;;;;;5.99;80.24;99772.89;134112;1297;22540;-79
2023/03/30 06:19:43;;;;;;;;;;;;;;;6.12;80.20;99778.21;134127;1295;22466;-81
2023/03/30 06:22:44;;;;;;;;;;;;;;;6.28;80.01;99781.94;134066;1288;23440;-81
2023/03/30 06:25:51;;;;;;;;;;;;;;;6.40;80.04;99772.33;134079;1297;23215;-81
2023/03/30 06:28:55;;;;;;;;;;;;;;;6.51;80.27;99755.84;134159;1297;22442;-81
2023/03/30 06:31:57;;;;;;;;;;;;;;;6.58;80.29;99742.43;134301;1296;22517;-81
2023/03/30 06:35:23;;;;;;;;;;;;;;;6.65;79.99;99740.70;134076;1298;22448;-81
2023/03/30 06:38:27;;;;;;;;;;;;;;;6.70;79.78;99730.85;134096;1297;22924;-80
2023/03/30 06:41:31;;;;;;;;;;;;;;;6.71;79.57;99725.52;134181;1296;23260;-81
2023/03/30 06:44:46;;;;;;;;;;;;;;;6.73;79.62;99729.06;134305;1297;22445;-81
2023/03/30 06:47:58;;;;;;;;;;;;;;;6.75;79.31;99726.34;134167;1297;22447;-81
2023/03/30 06:51:12;;;;;;;;;;;;;;;;;;;;;
2023/03/30 06:54:18;;;;;;;;;;;;;;;6.86;79.31;99723.01;134088;1297;22472;-80
2023/03/30 06:57:29;;;;;;;;;;;;;;;6.94;78.85;99731.19;134085;1297;22428;-80
2023/03/30 07:00:53;;;;;;;;;;;;;;;7.01;78.72;99738.55;134326;1296;22531;-81
2023/03/30 07:04:14;;;;;;;;;;;;;;;7.13;78.55;99748.77;134294;1296;22475;-81
2023/03/30 07:07:35;;;;;;;;;;;;;;;7.25;78.42;99747.95;134296;1297;22461;-81
2023/03/30 07:10:38;;;;;;;;;;;;;;;7.34;78.46;99739.86;134101;1295;22469;-81
2023/03/30 07:13:40;;;;;;;;;;;;;;;7.41;78.35;99739.80;134019;1298;22460;-80
2023/03/30 07:16:42;;;;;;;;;;;;;;;7.49;77.99;99737.30;134101;1296;22442;-81
2023/03/30 07:19:42;;;;;;;;;;;;;;;7.56;77.72;99743.39;134159;1297;22473;-81
2023/03/30 07:22:51;;;;;;;;;;;;;;;7.64;77.53;99741.13;134063;1297;22559;-80
2023/03/30 07:25:55;;;;;;;;;;;;;;;7.77;77.50;99735.30;134075;1296;23128;-81
2023/03/30 07:29:03;;;;;;;;;;;;;;;7.96;77.37;99731.36;134117;1297;22475;-80
2023/03/30 07:32:04;;;;;;;;;;;;;;;8.21;77.05;99719.26;134128;1301;22446;-84
2023/03/30 07:35:07;;;;;;;;;;;;;;;8.49;76.62;99709.95;134120;1296;22643;-83
2023/03/30 07:38:10;;;;;;;;;;;;;;;8.79;75.75;99710.52;134119;1298;22483;-84
2023/03/30 07:41:15;;;;;;;;;;;;;;;9.08;75.17;99715.13;134079;1298;22476;-83
2023/03/30 07:44:15;;;;;;;;;;;;;;;9.22;74.62;99709.20;134123;1297;22464;-85
2023/03/30 07:47:16;;;;;;;;;;;;;;;9.37;74.27;99691.79;134143;1298;22452;-83
2023/03/30 07:50:17;;;;;;;;;;;;;;;9.48;73.60;99683.36;134101;1297;23111;-84
2023/03/30 07:53:18;;;;;;;;;;;;;;;9.62;73.62;99678.31;134314;1296;23118;-84
2023/03/30 07:56:31;;;;;;;;;;;;;;;9.94;73.46;99677.35;134156;1297;22465;-85
2023/03/30 07:59:33;;;;;;;;;;;;;;;10.17;71.71;99677.09;134030;1296;22472;-82
2023/03/30 08:02:43;;;;;;;;;;;;;;;10.46;72.43;99686.60;134322;1296;23230;-80
2023/03/30 08:06:05;;;;;;;;;;;;;;;11.00;71.78;99673.59;134124;1295;22438;-83
2023/03/30 08:09:12;;;;;;;;;;;;;;;11.37;70.40;99664.42;134136;1298;22465;-82
2023/03/30 08:12:12;;;;;;;;;;;;;;;11.54;69.77;99661.17;134103;1303;22431;-82
2023/03/30 08:15:13;;;;;;;;;;;;;;;11.40;69.04;99646.90;134125;1295;22459;-80
2023/03/30 08:18:14;;;;;;;;;;;;;;;11.20;68.21;99640.64;134309;1298;22466;-82
2023/03/30 08:21:18;;;;;;;;;;;;;;;11.15;68.25;99638.34;134285;1298;22588;-81
2023/03/30 08:24:19;;;;;;;;;;;;;;;11.30;68.65;99634.00;134323;1298;22449;-79
2023/03/30 08:27:19;;;;;;;;;;;;;;;11.68;68.62;99632.38;134104;1297;22453;-81
2023/03/30 08:30:40;;;;;;;;;;;;;;;11.82;67.56;99625.90;134272;1297;23124;-80
2023/03/30 08:33:45;;;;;;;;;;;;;;;11.73;67.52;99617.65;134307;1297;22454;-81
2023/03/30 08:36:57;;;;;;;;;;;;;;;;;;;;;
2023/03/30 08:40:11;;;;;;;;;;;;;;;;;;;;;
2023/03/30 08:43:15;;;;;;;;;;;;;;;12.09;67.41;99611.56;134340;1296;22593;-81
2023/03/30 08:46:39;;;;;;;;;;;;;;;12.27;66.93;99606.14;134082;1297;22457;-81
2023/03/30 08:49:41;;;;;;;;;;;;;;;12.45;66.91;99594.96;134128;1297;22521;-81
2023/03/30 08:52:42;;;;;;;;;;;;;;;12.59;66.59;99590.58;134099;1297;22440;-81
2023/03/30 08:55:49;;;;;;;;;;;;;;;12.67;65.70;99585.52;134110;1298;23176;-80
2023/03/30 08:58:59;;;;;;;;;;;;;;;12.62;65.50;99584.01;134136;1297;22538;-81
2023/03/30 09:02:15;;;;;;;;;;;;;;;12.71;65.45;99582.33;134108;1297;22503;-81
2023/03/30 09:05:42;;;;;;;;;;;;;;;12.68;64.73;99575.98;134127;1297;22450;-81
2023/03/30 09:08:43;;;;;;;;;;;;;;;12.58;64.99;99576.13;134108;1297;22497;-80
2023/03/30 09:11:55;;;;;;;;;;;;;;;12.46;65.46;99582.38;134123;1305;22431;-83
2023/03/30 09:15:19;;;;;;;;;;;;;;;12.50;65.47;99580.11;134176;1297;22509;-83
2023/03/30 09:19:01;;;;;;;;;;;;;;;;;;;;;
2023/03/30 09:22:04;;;;;;;;;;;;;;;13.02;65.15;99565.27;133736;1297;22455;-82
2023/03/30 09:25:11;;;;;;;;;;;;;;;13.22;64.74;99553.06;134141;1298;22546;-81
2023/03/30 09:28:41;;;;;;;;;;;;;;;13.32;64.15;99547.80;134069;1301;23180;-82
2023/03/30 09:31:44;;;;;;;;;;;;;;;13.24;63.32;99551.56;134153;1297;23328;-81
2023/03/30 09:34:46;;;;;;;;;;;;;;;13.17;63.35;99545.95;134040;1300;22493;-80
2023/03/30 09:37:47;;;;;;;;;;;;;;;13.21;63.10;99537.27;134157;1297;22447;-78
2023/03/30 09:41:05;;;;;;;;;;;;;;;13.30;62.64;99532.54;134159;1297;23352;-79
2023/03/30 09:44:33;;;;;;;;;;;;;;;13.67;62.73;99524.21;134139;1297;23190;-80
2023/03/30 09:47:35;;;;;;;;;;;;;;;14.05;62.40;99516.54;134329;1296;23114;-80
2023/03/30 09:50:42;;;;;;;;;;;;;;;14.47;60.79;99514.45;134285;1297;22465;-81
2023/03/30 09:53:44;;;;;;;;;;;;;;;14.66;60.33;99508.34;134280;1297;22441;-81
2023/03/30 09:56:50;;;;;;;;;;;;;;;14.89;59.92;99504.30;134110;1295;22446;-80
2023/03/30 10:00:12;;;;;;;;;;;;;;;15.03;58.93;99498.67;134300;1297;25033;-81
2023/03/30 10:03:32;;;;;;;;;;;;;;;;;;;;;
2023/03/30 10:06:48;;;;;;;;;;;;;;;15.22;58.21;99487.73;134331;1297;23299;-82
2023/03/30 10:09:50;;;;;;;;;;;;;;;15.46;57.64;99482.37;134100;1301;22480;-81
2023/03/30 10:12:54;;;;;;;;;;;;;;;15.47;57.34;99469.81;134287;1297;22429;-80
2023/03/30 10:16:01;;;;;;;;;;;;;;;15.57;57.40;99463.71;134289;1284;22444;-81
2023/03/30 10:19:03;;;;;;;;;;;;;;;15.81;57.26;99471.77;134272;1297;22853;-80
2023/03/30 10:22:12;;;;;;;;;;;;;;;15.97;56.28;99468.20;134313;1297;22423;-81
2023/03/30 10:25:17;;;;;;;;;;;;;;;16.09;56.42;99464.56;134311;1298;22555;-81
2023/03/30 10:28:42;;;;;;;;;;;;;;;;;;;;;
2023/03/30 10:32:40;;;;;;;;;;;;;;;16.62;56.09;99460.45;134311;1297;22501;-81
2023/03/30 10:35:59;;;;;;;;;;;;;;;;;;;;;
2023/03/30 10:39:29;;;;;;;;;;;;;;;16.69;55.71;99467.48;134269;1297;22525;-80
2023/03/30 10:42:54;;;;;;;;;;;;;;;;;;;;;
2023/03/30 10:46:21;;;;;;;;;;;;;;;17.30;55.17;99469.02;134311;1297;22485;-81
2023/03/30 10:49:46;;;;;;;;;;;;;;;17.23;54.02;99469.55;134278;1298;22423;-78
2023/03/30 10:53:05;;;;;;;;;;;;;;;17.18;54.00;99462.96;134300;1298;22435;-80
2023/03/30 10:56:20;;;;;;;;;;;;;;;17.11;53.99;99454.40;134300;1298;22454;-80
2023/03/30 10:59:27;;;;;;;;;;;;;;;16.89;53.41;99448.80;134267;1298;22453;-80
2023/03/30 11:02:33;;;;;;;;;;;;;;;16.57;53.72;99445.09;134284;1298;22452;-80
2023/03/30 11:05:39;;;;;;;;;;;;;;;16.52;54.44;99441.64;134266;1297;22422;-80
2023/03/30 11:09:03;;;;;;;;;;;;;;;16.55;54.83;99438.92;134309;1297;23131;-80
2023/03/30 11:12:19;;;;;;;;;;;;;;;;;;;;;
2023/03/30 11:15:28;;;;;;;;;;;;;;;16.39;54.34;99435.02;134295;1297;22454;-80
2023/03/30 11:18:35;;;;;;;;;;;;;;;16.35;54.95;99435.55;134292;1298;22437;-80
2023/03/30 11:21:41;;;;;;;;;;;;;;;16.28;54.89;99438.66;134308;1296;22623;-79
2023/03/30 11:25:02;;;;;;;;;;;;;;;;;;;;;
2023/03/30 11:28:05;;;;;;;;;;;;;;;15.83;55.18;99438.05;134240;1298;23210;-79
2023/03/30 11:31:18;;;;;;;;;;;;;;;15.64;55.15;99430.31;134279;1298;22471;-80
2023/03/30 11:34:24;;;;;;;;;;;;;;;15.44;55.38;99419.38;134255;1297;23205;-80
2023/03/30 11:37:38;;;;;;;;;;;;;;;;;;;;;
2023/03/30 11:41:03;;;;;;;;;;;;;;;15.11;56.17;99434.84;134208;1298;22469;-79
2023/03/30 11:44:04;;;;;;;;;;;;;;;15.00;56.69;99445.38;134303;1296;22537;-80
2023/03/30 11:47:13;;;;;;;;;;;;;;;14.88;56.99;99462.19;134302;1297;22449;-80
2023/03/30 11:50:23;;;;;;;;;;;;;;;14.75;57.18;99466.41;134304;1297;22451;-81
2023/03/30 11:53:48;;;;;;;;;;;;;;;14.69;57.53;99470.53;134262;1298;23066;-81
2023/03/30 11:56:59;;;;;;;;;;;;;;;14.71;57.98;99468.52;134275;1296;22466;-80
2023/03/30 12:00:18;;;;;;;;;;;;;;;14.77;57.96;99464.69;134162;1297;22403;-82
2023/03/30 12:03:55;;;;;;;;;;;;;;;14.93;58.00;99475.52;134233;1298;22478;-80
2023/03/30 12:07:00;;;;;;;;;;;;;;;15.14;57.81;99478.00;133269;1298;22568;-79
2023/03/30 12:10:02;;;;;;;;;;;;;;;15.28;57.66;99469.10;134251;1297;22467;-81
2023/03/30 12:13:02;;;;;;;;;;;;;;;15.38;57.62;99465.02;134222;1298;23078;-81
2023/03/30 12:16:06;;;;;;;;;;;;;;;15.39;57.22;99468.99;134236;1298;22475;-80
2023/03/30 12:19:24;;;;;;;;;;;;;;;15.33;57.13;99467.19;134251;1297;23529;-80
2023/03/30 12:22:28;;;;;;;;;;;;;;;15.23;57.27;99459.21;134282;1295;22451;-80
2023/03/30 12:25:32;;;;;;;;;;;;;;;15.11;57.56;99469.58;134156;1298;22460;-78
2023/03/30 12:28:58;;;;;;;;;;;;;;;15.00;57.91;99472.09;134258;1296;23346;-78
2023/03/30 12:32:01;;;;;;;;;;;;;;;14.83;58.39;99473.24;134160;1296;22488;-80
2023/03/30 12:35:32;;;;;;;;;;;;;;;14.69;58.71;99475.35;134262;1297;22457;-80
2023/03/30 12:38:45;;;;;;;;;;;;;;;14.56;59.25;99469.91;134030;1298;22524;-79
2023/03/30 12:41:47;;;;;;;;;;;;;;;14.47;59.66;99468.33;134236;1297;22557;-80
2023/03/30 12:45:00;;;;;;;;;;;;;;;14.35;59.86;99459.44;134243;1298;23119;-80
2023/03/30 12:48:27;;;;;;;;;;;;;;;14.23;60.20;99451.73;134298;1298;22486;-80
2023/03/30 12:51:38;;;;;;;;;;;;;;;14.15;60.49;99452.03;134214;1298;22482;-78
2023/03/30 12:54:47;;;;;;;;;;;;;;;14.12;60.77;99452.48;134257;1304;22507;-81
2023/03/30 12:58:16;;;;;;;;;;;;;;;14.10;60.83;99451.65;134237;1298;22459;-80
2023/03/30 13:01:45;;;;;;;;;;;;;;;14.09;60.87;99448.05;134232;1298;22496;-79
2023/03/30 13:04:47;;;;;;;;;;;;;;;14.14;61.02;99444.19;134247;1298;22435;-80
2023/03/30 13:07:49;;;;;;;;;;;;;;;14.20;61.11;99444.34;134289;1297;23295;-80
2023/03/30 13:10:50;;;;;;;;;;;;;;;14.23;61.18;99445.08;134267;1297;22474;-81
2023/03/30 13:13:54;;;;;;;;;;;;;;;14.21;61.32;99441.48;134233;1298;22440;-79
2023/03/30 13:16:57;;;;;;;;;;;;;;;14.09;61.48;99436.44;134286;1297;22471;-80
2023/03/30 13:20:18;;;;;;;;;;;;;;;13.94;61.76;99438.28;134209;1295;22455;-80
2023/03/30 13:23:18;;;;;;;;;;;;;;;13.83;62.30;99439.75;134205;1300;22449;-79
2023/03/30 13:26:21;;;;;;;;;;;;;;;13.74;62.71;99434.78;134242;1298;22453;-79
2023/03/30 13:29:23;;;;;;;;;;;;;;;13.67;63.05;99431.77;134229;1304;23327;-80
2023/03/30 13:32:31;;;;;;;;;;;;;;;13.66;63.46;99434.58;134246;1298;22489;-80
2023/03/30 13:35:34;;;;;;;;;;;;;;;13.69;63.58;99433.47;134233;1297;22426;-80
2023/03/30 13:39:04;;;;;;;;;;;;;;;;;;;;;
2023/03/30 13:42:29;;;;;;;;;;;;;;;;;;;;;
2023/03/30 13:45:42;;;;;;;;;;;;;;;13.74;63.67;99429.91;134284;1299;22564;-80
2023/03/30 13:48:46;;;;;;;;;;;;;;;13.73;64.18;99423.75;134241;1298;23093;-81
2023/03/30 13:51:47;;;;;;;;;;;;;;;13.71;64.32;99411.86;134237;1304;22443;-80
2023/03/30 13:54:48;;;;;;;;;;;;;;;13.69;64.41;99403.36;134326;1297;22500;-81
2023/03/30 13:57:53;;;;;;;;;;;;;;;13.69;64.74;99399.47;134255;1301;23072;-81
2023/03/30 14:00:56;;;;;;;;;;;;;;;13.69;64.99;99390.45;134239;1298;23201;-80
2023/03/30 14:04:08;;;;;;;;;;;;;;;13.66;65.19;99383.42;134232;1298;22609;-80
2023/03/30 14:07:14;;;;;;;;;;;;;;;13.61;65.35;99383.02;134276;1303;22448;-80
2023/03/30 14:10:20;;;;;;;;;;;;;;;13.55;65.52;99378.46;134257;1298;22443;-79
2023/03/30 14:13:21;;;;;;;;;;;;;;;13.52;65.72;99373.16;134293;1297;22567;-79
2023/03/30 14:16:26;;;;;;;;;;;;;;;13.51;65.86;99368.41;134256;1297;22441;-78
2023/03/30 14:19:28;;;;;;;;;;;;;;;13.50;66.01;99357.34;134280;1298;22504;-78
2023/03/30 14:22:29;;;;;;;;;;;;;;;13.49;66.16;99350.98;134258;1304;22741;-80
2023/03/30 14:25:38;;;;;;;;;;;;;;;13.51;66.24;99346.31;134304;1298;23156;-80
2023/03/30 14:28:41;;;;;;;;;;;;;;;13.54;66.21;99342.01;134261;1301;22465;-80
2023/03/30 14:31:42;;;;;;;;;;;;;;;13.56;66.19;99336.42;134086;1298;203031;-79
2023/03/30 14:34:47;;;;;;;;;;;;;;;13.59;66.22;99334.05;134251;1298;22428;-81
2023/03/30 14:37:51;;;;;;;;;;;;;;;13.60;66.12;99327.45;134247;1301;24763;-80
2023/03/30 14:40:53;;;;;;;;;;;;;;;13.62;66.27;99316.38;134240;1296;22417;-80
2023/03/30 14:43:59;;;;;;;;;;;;;;;13.62;66.49;99307.19;134264;1299;22533;-80
2023/03/30 14:46:59;;;;;;;;;;;;;;;13.59;66.64;99302.73;134301;1298;23077;-81
2023/03/30 14:50:06;;;;;;;;;;;;;;;13.55;66.77;99297.28;134259;1298;23481;-79
2023/03/30 14:53:10;;;;;;;;;;;;;;;13.49;66.78;99290.64;134153;1298;23311;-80
2023/03/30 14:56:18;;;;;;;;;;;;;;;13.43;66.86;99293.30;134246;1297;22449;-81
2023/03/30 14:59:19;;;;;;;;;;;;;;;13.39;67.00;99299.73;134237;1298;23000;-80
2023/03/30 15:02:22;;;;;;;;;;;;;;;13.33;67.07;99303.88;134274;1301;22434;-78
2023/03/30 15:05:34;;;;;;;;;;;;;;;13.29;67.19;99309.81;134257;1298;22507;-79
2023/03/30 15:08:38;;;;;;;;;;;;;;;13.25;67.14;99314.79;134231;1298;22451;-79
2023/03/30 15:11:43;;;;;;;;;;;;;;;13.20;67.33;99320.88;134079;1299;22464;-79
2023/03/30 15:14:48;;;;;;;;;;;;;;;13.15;67.36;99336.52;134193;1295;23069;-79
2023/03/30 15:17:51;;;;;;;;;;;;;;;13.13;67.40;99337.75;134215;1297;23242;-80
2023/03/30 15:20:52;;;;;;;;;;;;;;;13.14;67.58;99337.63;134216;1297;22460;-78
2023/03/30 15:23:53;;;;;;;;;;;;;;;13.15;67.64;99337.23;134223;1297;22483;-79
2023/03/30 15:26:55;;;;;;;;;;;;;;;13.15;67.51;99339.64;134262;1298;22629;-82
2023/03/30 15:29:57;;;;;;;;;;;;;;;13.14;67.68;99316.11;134288;1298;22434;-79
2023/03/30 15:32:58;;;;;;;;;;;;;;;13.14;67.71;99307.67;134225;1298;22451;-80
2023/03/30 15:36:13;;;;;;;;;;;;;;;13.12;67.71;99306.49;134258;1298;22540;-81
2023/03/30 15:39:18;;;;;;;;;;;;;;;13.11;67.73;99302.43;134168;1301;23261;-77
2023/03/30 15:42:29;;;;;;;;;;;;;;;13.10;67.97;99287.81;134287;1297;23161;-82
2023/03/30 15:45:34;;;;;;;;;;;;;;;13.08;67.91;99290.75;134095;1294;23240;-81
2023/03/30 15:48:40;;;;;;;;;;;;;;;13.04;67.98;99293.73;134140;1299;22625;-81
2023/03/30 15:51:42;;;;;;;;;;;;;;;12.98;68.03;99296.15;134075;1299;23112;-81
2023/03/30 15:54:46;;;;;;;;;;;;;;;12.93;68.01;99292.70;134119;1298;24492;-81
2023/03/30 15:57:47;;;;;;;;;;;;;;;12.89;68.20;99275.98;134120;1297;22477;-80
2023/03/30 16:00:48;;;;;;;;;;;;;;;12.88;68.37;99271.91;134088;1298;22459;-81
2023/03/30 16:03:52;;;;;;;;;;;;;;;12.84;68.46;99269.16;134115;1301;23138;-81
2023/03/30 16:06:52;;;;;;;;;;;;;;;12.81;68.37;99268.02;134089;1297;22902;-79
2023/03/30 16:09:53;;;;;;;;;;;;;;;12.77;68.69;99275.41;134099;1298;22542;-81
2023/03/30 16:12:55;;;;;;;;;;;;;;;12.71;68.78;99272.52;134112;1298;23120;-82
2023/03/30 16:15:58;;;;;;;;;;;;;;;12.64;68.78;99269.86;134084;1298;22487;-80
2023/03/30 16:18:59;;;;;;;;;;;;;;;12.61;68.90;99265.92;134085;1297;22476;-81
2023/03/30 16:22:02;;;;;;;;;;;;;;;12.56;68.92;99261.69;134075;1297;23113;-81
2023/03/30 16:25:03;;;;;;;;;;;;;;;12.53;68.99;99263.59;134093;1298;23088;-82
2023/03/30 16:28:04;;;;;;;;;;;;;;;12.50;69.26;99257.65;134134;1298;22436;-82
2023/03/30 16:31:16;;;;;;;;;;;;;;;12.47;69.32;99251.67;134132;1297;22477;-82
2023/03/30 16:34:17;;;;;;;;;;;;;;;12.43;69.44;99249.33;134078;1298;22480;-81
2023/03/30 16:37:18;;;;;;;;;;;;;;;12.40;69.76;99249.28;134138;1297;22510;-81
2023/03/30 16:40:24;;;;;;;;;;;;;;;12.36;69.85;99253.80;134109;1297;23243;-81